Aviation Digital Data Service (ADDS)

Output produced by METARs form (1542 UTC 22 August 2014)
found at http://www.aviationweather.gov/adds/metars/
 
KMDT 221456Z 15003KT 10SM OVC011 23/21 A3001 RMK AO2 SLP162 T02330206 50003
KMDT 221403Z 12003KT 6SM HZ OVC010 23/20 A3002 RMK AO2 T02280200
KMDT 221356Z 12004KT 2 1/2SM OVC009 23/20 A3002 RMK AO2 SFC VIS 7 SLP165 T02280200
KMDT 221256Z 00000KT 2 1/2SM BR OVC006 22/20 A3002 RMK AO2 SFC VIS 3 SLP165 T02170200
KMDT 221156Z 00000KT 2 1/2SM BR BKN007 OVC011 21/19 A3000 RMK AO2 SLP159 70017 T02110194 10211 20194 53010
KMDT 221056Z 00000KT 2 1/2SM BR OVC007 21/19 A2999 RMK AO2 SLP153 T02060189
KMDT 221027Z 36003KT 5SM BR BKN008 OVC023 21/19 A2999 RMK AO2 T02060189
KMDT 220956Z 00000KT 3SM BR FEW004 OVC025 20/18 A2998 RMK AO2 SLP151 T02000183
KMDT 220856Z 00000KT 3SM BR FEW004 BKN025 BKN250 20/18 A2997 RMK AO2 SLP149 T02000183 56003
KMDT 220756Z 00000KT 4SM BR FEW004 SCT035 SCT250 20/18 A2997 RMK AO2 SLP149 T02000183
KMDT 220656Z 00000KT 6SM BR BKN004 BKN250 20/18 A2998 RMK AO2 SLP149 T02000183
KMDT 220556Z 34003KT 5SM BR SCT004 SCT250 21/19 A2998 RMK AO2 SLP151 T02060189 10222 20206 56005
KMDT 220456Z 00000KT 6SM BR FEW006 SCT065 SCT250 21/19 A2998 RMK AO2 SLP151 T02060189 403000200
KMDT 220356Z 00000KT 6SM BR FEW006 SCT070 SCT250 21/19 A2999 RMK AO2 SLP154 T02110194
KMDT 220256Z 00000KT 7SM FEW007 SCT120 BKN250 21/19 A3000 RMK AO2 SLP156 T02110194 53006
KMDT 220213Z 36003KT 5SM BR FEW004 SCT120 BKN250 21/20 A2999 RMK AO2 T02110200
KMDT 220156Z 00000KT 8SM FEW070 SCT120 BKN250 22/20 A2999 RMK AO2 SLP154 T02170200
KMDT 220056Z 00000KT 9SM FEW050 SCT120 BKN250 22/20 A2998 RMK AO2 SLP151 T02170200
KMDT 212356Z 35005KT 9SM FEW050 BKN120 OVC250 22/21 A2998 RMK AO2 SLP151 CB DSNT S MOV SE TCU DSNT SW-W 60017 T02220206 10300 20222 51002
KMDT 212256Z 26004KT 8SM FEW050 BKN100 BKN140 OVC250 23/21 A2998 RMK AO2 RAE11B15E49 TSE11 SLP151 TS DSPTD CB DSNT SW MOV SE P0000 T02280211
KMDT 212213Z 28004KT 8SM SCT045 BKN080 BKN120 OVC160 24/22 A2999 RMK AO2 RAE11 TSE11 TS DSPTD CB DSNT S-W MOV SE P0000 T02390217
KMDT 212156Z 04005KT 9SM -TSRA SCT045CB BKN080 BKN120 OVC160 24/22 A2998 RMK AO2 SLP150 OCNL LTGIC VC N-NE TS VC N-NE MOV E CB DSNT S-W PCPN VRY LGT P0017 T02440217
KMDT 212056Z 00000KT 9SM -TSRA SCT055CB SCT120 BKN160 OVC220 26/22 A2997 RMK AO2 RAB44 TSB51 SLP149 FRQ LTGICCCCG OHD-SW-W TS OHD-SW-W MOV SE TCU DSNT SE P0000 60000 T02560222 55000
KMDT 212053Z 00000KT 9SM -TSRA SCT055CB SCT120 BKN160 OVC220 26/23 A2997 RMK AO2 RAB44 TSB51 FRQ LTGICCCCG OHD-SW-W TS OHD-SW-W MOV SE TCU DSNT SE P0000
KMDT 211956Z 00000KT 10SM SCT040CB BKN180 OVC220 27/23 A2997 RMK AO2 SLP148 CBMAM OHD MOV SE CB DSNT W-NW MOV SE TCU DSNT SW T02670233
KMDT 211856Z COR 12003KT 10SM SCT045CB BKN180 BKN250 29/21 A2998 RMK AO2 SLP148 CBMAM OHD-N MOV SE TCU DSNT ALQDS T02890211
KMDT 211756Z 16003KT 10SM SCT045 BKN250 29/21 A3000 RMK AO2 SLP157 T02940211 10294 20211 58013
KMDT 211656Z 00000KT 10SM SCT045 SCT150 28/22 A3002 RMK AO2 SLP164 T02780222
KMDT 211556Z 00000KT 10SM CLR 27/21 A3003 RMK AO2 SLP167 T02720211
KMDT 211456Z 00000KT 10SM SCT045 26/20 A3004 RMK AO2 SLP170 T02610200 58003
KMDT 211356Z 00000KT 10SM SCT070 24/19 A3004 RMK AO2 SLP170 T02440194
KMDT 211256Z 14003KT 10SM SCT070 23/18 A3005 RMK AO2 SLP175 T02280183
KMDT 211156Z 11003KT 6SM BR SCT006 BKN070 21/19 A3005 RMK AO2 SLP174 70001 T02110189 10217 20200 51022
KMDT 211141Z 09003KT 6SM BR BKN006 BKN070 21/19 A3004 RMK AO2 T02110189
KMDT 211056Z 00000KT 6SM BR FEW006 FEW055 BKN075 21/18 A3004 RMK AO2 SLP170 T02060183
KMDT 210956Z 07003KT 6SM BR FEW006 SCT090 BKN250 20/18 A3001 RMK AO2 SLP160 T02000183
KMDT 210906Z 13005KT 6SM BR FEW006 BKN090 BKN250 20/19 A2999 RMK AO2 T02000189
KMDT 210856Z 13005KT 7SM FEW040 SCT090 SCT250 21/19 A2998 RMK AO2 SLP152 T02060189 58006
KMDT 210756Z 16004KT 9SM SCT040 SCT250 20/18 A3000 RMK AO2 SLP156 T02000183
KMDT 210656Z 00000KT 10SM FEW050 FEW250 21/19 A3000 RMK AO2 SLP156 T02110189
KMDT 210556Z 00000KT 10SM FEW045 FEW250 22/19 A3000 RMK AO2 SLP158 T02170189 10244 20217 58000
KMDT 210456Z 18004KT 10SM BKN045 BKN250 22/19 A3002 RMK AO2 SLP163 T02220194 402890206
KMDT 210356Z 19004KT 10SM BKN045 23/19 A3001 RMK AO2 SLP161 T02280189